sensor_id;sensor_type;location;lat;lon;timestamp;P1;durP1;ratioP1;P2;durP2;ratioP2
21816;SDS011;13247;47.504;7.382;2023-04-29T00:01:50;3.65;;;2.08;;
21816;SDS011;13247;47.504;7.382;2023-04-29T00:04:35;3.78;;;2.25;;
21816;SDS011;13247;47.504;7.382;2023-04-29T00:07:19;2.83;;;2.35;;
21816;SDS011;13247;47.504;7.382;2023-04-29T00:10:05;4.57;;;2.10;;
21816;SDS011;13247;47.504;7.382;2023-04-29T00:12:50;3.67;;;2.80;;
21816;SDS011;13247;47.504;7.382;2023-04-29T00:15:34;2.97;;;2.20;;
21816;SDS011;13247;47.504;7.382;2023-04-29T00:18:20;2.33;;;2.03;;
21816;SDS011;13247;47.504;7.382;2023-04-29T00:21:04;3.53;;;2.53;;
21816;SDS011;13247;47.504;7.382;2023-04-29T00:23:49;2.90;;;2.63;;
21816;SDS011;13247;47.504;7.382;2023-04-29T00:26:34;19.27;;;9.43;;
21816;SDS011;13247;47.504;7.382;2023-04-29T00:29:19;16.30;;;7.32;;
21816;SDS011;13247;47.504;7.382;2023-04-29T00:32:05;7.60;;;5.18;;
21816;SDS011;13247;47.504;7.382;2023-04-29T00:34:50;6.68;;;4.55;;
21816;SDS011;13247;47.504;7.382;2023-04-29T00:37:35;10.80;;;4.93;;
21816;SDS011;13247;47.504;7.382;2023-04-29T00:40:20;6.13;;;4.38;;
21816;SDS011;13247;47.504;7.382;2023-04-29T00:43:05;5.13;;;3.63;;
21816;SDS011;13247;47.504;7.382;2023-04-29T00:45:49;22.15;;;3.55;;
21816;SDS011;13247;47.504;7.382;2023-04-29T00:48:34;11.55;;;3.80;;
21816;SDS011;13247;47.504;7.382;2023-04-29T00:51:19;3.53;;;2.67;;
21816;SDS011;13247;47.504;7.382;2023-04-29T00:54:03;3.95;;;2.83;;
21816;SDS011;13247;47.504;7.382;2023-04-29T00:56:49;3.85;;;2.90;;
21816;SDS011;13247;47.504;7.382;2023-04-29T00:59:36;3.63;;;2.63;;
21816;SDS011;13247;47.504;7.382;2023-04-29T01:02:21;3.03;;;2.35;;
21816;SDS011;13247;47.504;7.382;2023-04-29T01:05:06;3.15;;;2.42;;
21816;SDS011;13247;47.504;7.382;2023-04-29T01:07:57;3.15;;;2.40;;
21816;SDS011;13247;47.504;7.382;2023-04-29T01:11:09;3.03;;;2.13;;
21816;SDS011;13247;47.504;7.382;2023-04-29T01:13:58;2.88;;;2.03;;
21816;SDS011;13247;47.504;7.382;2023-04-29T01:16:51;2.55;;;2.20;;
21816;SDS011;13247;47.504;7.382;2023-04-29T01:19:53;2.47;;;1.75;;
21816;SDS011;13247;47.504;7.382;2023-04-29T01:22:40;1.83;;;1.70;;
21816;SDS011;13247;47.504;7.382;2023-04-29T01:25:25;4.13;;;2.20;;
21816;SDS011;13247;47.504;7.382;2023-04-29T01:28:22;3.03;;;2.20;;
21816;SDS011;13247;47.504;7.382;2023-04-29T01:34:13;2.63;;;1.90;;
21816;SDS011;13247;47.504;7.382;2023-04-29T01:37:27;2.40;;;2.10;;
21816;SDS011;13247;47.504;7.382;2023-04-29T01:40:42;2.88;;;2.05;;
21816;SDS011;13247;47.504;7.382;2023-04-29T01:43:39;3.13;;;2.60;;
21816;SDS011;13247;47.504;7.382;2023-04-29T01:46:25;4.13;;;2.40;;
21816;SDS011;13247;47.504;7.382;2023-04-29T01:49:11;3.97;;;2.20;;
21816;SDS011;13247;47.504;7.382;2023-04-29T01:51:56;2.42;;;2.05;;
21816;SDS011;13247;47.504;7.382;2023-04-29T01:54:41;2.55;;;2.20;;
21816;SDS011;13247;47.504;7.382;2023-04-29T01:57:26;4.90;;;2.42;;
21816;SDS011;13247;47.504;7.382;2023-04-29T02:00:10;2.90;;;2.60;;
21816;SDS011;13247;47.504;7.382;2023-04-29T02:02:56;3.53;;;2.20;;
21816;SDS011;13247;47.504;7.382;2023-04-29T02:05:41;2.35;;;2.03;;
21816;SDS011;13247;47.504;7.382;2023-04-29T02:08:26;2.40;;;1.95;;
21816;SDS011;13247;47.504;7.382;2023-04-29T02:11:10;2.78;;;2.22;;
21816;SDS011;13247;47.504;7.382;2023-04-29T02:13:55;3.90;;;2.20;;
21816;SDS011;13247;47.504;7.382;2023-04-29T02:16:42;2.42;;;2.20;;
21816;SDS011;13247;47.504;7.382;2023-04-29T02:19:28;2.03;;;1.80;;
21816;SDS011;13247;47.504;7.382;2023-04-29T02:22:12;2.33;;;2.05;;
21816;SDS011;13247;47.504;7.382;2023-04-29T02:24:58;2.13;;;1.92;;
21816;SDS011;13247;47.504;7.382;2023-04-29T02:27:43;3.38;;;2.00;;
21816;SDS011;13247;47.504;7.382;2023-04-29T02:30:28;5.00;;;1.83;;
21816;SDS011;13247;47.504;7.382;2023-04-29T02:33:13;3.88;;;1.80;;
21816;SDS011;13247;47.504;7.382;2023-04-29T02:35:57;1.80;;;1.70;;
21816;SDS011;13247;47.504;7.382;2023-04-29T02:38:42;2.05;;;1.77;;
21816;SDS011;13247;47.504;7.382;2023-04-29T02:41:27;1.70;;;1.58;;
21816;SDS011;13247;47.504;7.382;2023-04-29T02:44:11;4.30;;;1.73;;
21816;SDS011;13247;47.504;7.382;2023-04-29T02:46:56;2.72;;;1.85;;
21816;SDS011;13247;47.504;7.382;2023-04-29T02:49:41;1.98;;;1.70;;
21816;SDS011;13247;47.504;7.382;2023-04-29T02:52:25;2.08;;;1.88;;
21816;SDS011;13247;47.504;7.382;2023-04-29T02:55:10;3.10;;;1.88;;
21816;SDS011;13247;47.504;7.382;2023-04-29T02:57:55;1.83;;;1.63;;
21816;SDS011;13247;47.504;7.382;2023-04-29T03:00:40;3.00;;;1.70;;
21816;SDS011;13247;47.504;7.382;2023-04-29T03:03:25;2.10;;;1.85;;
21816;SDS011;13247;47.504;7.382;2023-04-29T03:06:12;1.85;;;1.70;;
21816;SDS011;13247;47.504;7.382;2023-04-29T03:08:57;2.53;;;1.70;;
21816;SDS011;13247;47.504;7.382;2023-04-29T03:11:42;2.17;;;1.77;;
21816;SDS011;13247;47.504;7.382;2023-04-29T03:14:26;2.67;;;1.75;;
21816;SDS011;13247;47.504;7.382;2023-04-29T03:17:12;3.92;;;2.05;;
21816;SDS011;13247;47.504;7.382;2023-04-29T03:19:57;2.28;;;1.83;;
21816;SDS011;13247;47.504;7.382;2023-04-29T03:22:42;2.58;;;1.83;;
21816;SDS011;13247;47.504;7.382;2023-04-29T03:25:26;1.92;;;1.58;;
21816;SDS011;13247;47.504;7.382;2023-04-29T03:28:12;2.13;;;1.88;;
21816;SDS011;13247;47.504;7.382;2023-04-29T03:30:57;2.33;;;1.95;;
21816;SDS011;13247;47.504;7.382;2023-04-29T03:33:43;5.45;;;1.63;;
21816;SDS011;13247;47.504;7.382;2023-04-29T03:36:27;1.98;;;1.70;;
21816;SDS011;13247;47.504;7.382;2023-04-29T03:39:12;7.55;;;2.22;;
21816;SDS011;13247;47.504;7.382;2023-04-29T03:41:59;4.47;;;1.65;;
21816;SDS011;13247;47.504;7.382;2023-04-29T03:44:45;2.05;;;1.63;;
21816;SDS011;13247;47.504;7.382;2023-04-29T03:47:29;1.50;;;1.40;;
21816;SDS011;13247;47.504;7.382;2023-04-29T03:50:14;1.50;;;1.38;;
21816;SDS011;13247;47.504;7.382;2023-04-29T03:52:59;6.35;;;1.80;;
21816;SDS011;13247;47.504;7.382;2023-04-29T03:55:44;4.53;;;1.70;;
21816;SDS011;13247;47.504;7.382;2023-04-29T03:58:29;3.30;;;2.10;;
21816;SDS011;13247;47.504;7.382;2023-04-29T04:01:13;4.05;;;2.17;;
21816;SDS011;13247;47.504;7.382;2023-04-29T04:03:58;38.15;;;3.60;;
21816;SDS011;13247;47.504;7.382;2023-04-29T04:06:43;2.75;;;2.08;;
21816;SDS011;13247;47.504;7.382;2023-04-29T04:09:33;5.13;;;2.10;;
21816;SDS011;13247;47.504;7.382;2023-04-29T04:12:18;25.50;;;3.00;;
21816;SDS011;13247;47.504;7.382;2023-04-29T04:15:03;9.38;;;3.05;;
21816;SDS011;13247;47.504;7.382;2023-04-29T04:17:48;31.48;;;2.72;;
21816;SDS011;13247;47.504;7.382;2023-04-29T04:20:36;3.95;;;2.80;;
21816;SDS011;13247;47.504;7.382;2023-04-29T04:23:22;63.47;;;4.00;;
21816;SDS011;13247;47.504;7.382;2023-04-29T04:26:07;5.82;;;2.13;;
21816;SDS011;13247;47.504;7.382;2023-04-29T04:28:51;2.75;;;2.00;;
21816;SDS011;13247;47.504;7.382;2023-04-29T04:31:36;2.50;;;2.00;;
21816;SDS011;13247;47.504;7.382;2023-04-29T04:34:21;29.08;;;2.42;;
21816;SDS011;13247;47.504;7.382;2023-04-29T04:37:05;31.00;;;2.70;;
21816;SDS011;13247;47.504;7.382;2023-04-29T04:39:50;2.88;;;1.63;;
21816;SDS011;13247;47.504;7.382;2023-04-29T04:42:35;2.90;;;2.10;;
21816;SDS011;13247;47.504;7.382;2023-04-29T04:45:20;9.25;;;3.28;;
21816;SDS011;13247;47.504;7.382;2023-04-29T04:48:04;3.03;;;2.40;;
21816;SDS011;13247;47.504;7.382;2023-04-29T04:50:49;4.93;;;2.80;;
21816;SDS011;13247;47.504;7.382;2023-04-29T04:53:34;5.45;;;2.85;;
21816;SDS011;13247;47.504;7.382;2023-04-29T04:56:19;11.75;;;3.00;;
21816;SDS011;13247;47.504;7.382;2023-04-29T04:59:04;6.07;;;2.53;;
21816;SDS011;13247;47.504;7.382;2023-04-29T05:01:49;16.20;;;2.92;;
21816;SDS011;13247;47.504;7.382;2023-04-29T05:04:34;4.70;;;2.78;;
21816;SDS011;13247;47.504;7.382;2023-04-29T05:07:18;9.85;;;3.50;;
21816;SDS011;13247;47.504;7.382;2023-04-29T05:10:03;6.63;;;2.67;;
21816;SDS011;13247;47.504;7.382;2023-04-29T05:12:49;2.55;;;2.00;;
21816;SDS011;13247;47.504;7.382;2023-04-29T05:15:34;4.95;;;1.85;;
21816;SDS011;13247;47.504;7.382;2023-04-29T05:18:18;44.72;;;2.90;;
21816;SDS011;13247;47.504;7.382;2023-04-29T05:21:03;9.90;;;2.65;;
21816;SDS011;13247;47.504;7.382;2023-04-29T05:23:48;4.25;;;2.67;;
21816;SDS011;13247;47.504;7.382;2023-04-29T05:26:33;4.65;;;2.67;;
21816;SDS011;13247;47.504;7.382;2023-04-29T05:29:18;6.53;;;3.28;;
21816;SDS011;13247;47.504;7.382;2023-04-29T05:32:03;7.63;;;2.95;;
21816;SDS011;13247;47.504;7.382;2023-04-29T05:34:48;5.10;;;2.70;;
21816;SDS011;13247;47.504;7.382;2023-04-29T05:37:33;4.00;;;2.83;;
21816;SDS011;13247;47.504;7.382;2023-04-29T05:40:18;5.93;;;2.50;;
21816;SDS011;13247;47.504;7.382;2023-04-29T05:43:03;2.92;;;1.98;;
21816;SDS011;13247;47.504;7.382;2023-04-29T05:45:47;3.35;;;2.17;;
21816;SDS011;13247;47.504;7.382;2023-04-29T05:48:32;2.28;;;1.88;;
21816;SDS011;13247;47.504;7.382;2023-04-29T05:51:16;4.68;;;1.92;;
21816;SDS011;13247;47.504;7.382;2023-04-29T05:54:02;2.45;;;2.10;;
21816;SDS011;13247;47.504;7.382;2023-04-29T05:56:47;4.82;;;2.72;;
21816;SDS011;13247;47.504;7.382;2023-04-29T05:59:32;5.93;;;3.50;;
21816;SDS011;13247;47.504;7.382;2023-04-29T06:02:17;4.22;;;2.92;;
21816;SDS011;13247;47.504;7.382;2023-04-29T06:05:01;4.82;;;3.53;;
21816;SDS011;13247;47.504;7.382;2023-04-29T06:07:46;5.90;;;3.03;;
21816;SDS011;13247;47.504;7.382;2023-04-29T06:10:31;4.63;;;3.17;;
21816;SDS011;13247;47.504;7.382;2023-04-29T06:13:16;3.60;;;2.88;;
21816;SDS011;13247;47.504;7.382;2023-04-29T06:16:01;4.88;;;3.10;;
21816;SDS011;13247;47.504;7.382;2023-04-29T06:18:46;13.93;;;6.30;;
21816;SDS011;13247;47.504;7.382;2023-04-29T06:21:30;12.02;;;7.15;;
21816;SDS011;13247;47.504;7.382;2023-04-29T06:24:15;8.23;;;4.38;;
21816;SDS011;13247;47.504;7.382;2023-04-29T06:27:00;9.77;;;6.07;;
21816;SDS011;13247;47.504;7.382;2023-04-29T06:29:46;7.75;;;5.40;;
21816;SDS011;13247;47.504;7.382;2023-04-29T06:32:31;8.25;;;5.55;;
21816;SDS011;13247;47.504;7.382;2023-04-29T06:35:16;5.65;;;4.00;;
21816;SDS011;13247;47.504;7.382;2023-04-29T06:38:01;4.50;;;3.53;;
21816;SDS011;13247;47.504;7.382;2023-04-29T06:40:45;4.60;;;3.33;;
21816;SDS011;13247;47.504;7.382;2023-04-29T06:43:30;3.45;;;2.83;;
21816;SDS011;13247;47.504;7.382;2023-04-29T06:46:15;7.32;;;4.35;;
21816;SDS011;13247;47.504;7.382;2023-04-29T06:48:59;10.68;;;5.68;;
21816;SDS011;13247;47.504;7.382;2023-04-29T06:51:44;5.55;;;4.18;;
21816;SDS011;13247;47.504;7.382;2023-04-29T06:54:28;4.47;;;3.60;;
21816;SDS011;13247;47.504;7.382;2023-04-29T06:57:13;4.47;;;3.72;;
21816;SDS011;13247;47.504;7.382;2023-04-29T06:59:58;7.97;;;3.60;;
21816;SDS011;13247;47.504;7.382;2023-04-29T07:02:43;5.45;;;3.50;;
21816;SDS011;13247;47.504;7.382;2023-04-29T07:05:30;6.18;;;3.40;;
21816;SDS011;13247;47.504;7.382;2023-04-29T07:08:15;4.70;;;3.40;;
21816;SDS011;13247;47.504;7.382;2023-04-29T07:10:59;4.75;;;3.35;;
21816;SDS011;13247;47.504;7.382;2023-04-29T07:13:45;7.30;;;3.10;;
21816;SDS011;13247;47.504;7.382;2023-04-29T07:16:29;5.70;;;2.60;;
21816;SDS011;13247;47.504;7.382;2023-04-29T07:19:15;4.20;;;2.30;;
21816;SDS011;13247;47.504;7.382;2023-04-29T07:22:00;3.75;;;2.50;;
21816;SDS011;13247;47.504;7.382;2023-04-29T07:24:45;5.13;;;2.10;;
21816;SDS011;13247;47.504;7.382;2023-04-29T07:27:31;3.35;;;1.98;;
21816;SDS011;13247;47.504;7.382;2023-04-29T07:30:17;3.20;;;1.92;;
21816;SDS011;13247;47.504;7.382;2023-04-29T07:33:02;2.17;;;1.98;;
21816;SDS011;13247;47.504;7.382;2023-04-29T07:35:47;3.92;;;1.70;;
21816;SDS011;13247;47.504;7.382;2023-04-29T07:38:32;2.33;;;1.95;;
21816;SDS011;13247;47.504;7.382;2023-04-29T07:41:17;5.05;;;2.03;;
21816;SDS011;13247;47.504;7.382;2023-04-29T07:44:01;4.63;;;1.88;;
21816;SDS011;13247;47.504;7.382;2023-04-29T07:46:46;2.08;;;1.80;;
21816;SDS011;13247;47.504;7.382;2023-04-29T07:49:31;2.90;;;1.88;;
21816;SDS011;13247;47.504;7.382;2023-04-29T07:52:16;2.17;;;1.75;;
21816;SDS011;13247;47.504;7.382;2023-04-29T07:55:01;2.65;;;1.63;;
21816;SDS011;13247;47.504;7.382;2023-04-29T07:57:45;1.95;;;1.35;;
21816;SDS011;13247;47.504;7.382;2023-04-29T08:00:30;3.80;;;1.63;;
21816;SDS011;13247;47.504;7.382;2023-04-29T08:03:18;2.22;;;1.30;;
21816;SDS011;13247;47.504;7.382;2023-04-29T08:06:03;5.47;;;1.90;;
21816;SDS011;13247;47.504;7.382;2023-04-29T08:08:49;2.47;;;2.00;;
21816;SDS011;13247;47.504;7.382;2023-04-29T08:11:34;3.25;;;2.72;;
21816;SDS011;13247;47.504;7.382;2023-04-29T08:14:18;5.22;;;4.22;;
21816;SDS011;13247;47.504;7.382;2023-04-29T08:17:03;6.15;;;4.60;;
21816;SDS011;13247;47.504;7.382;2023-04-29T08:19:48;5.80;;;4.78;;
21816;SDS011;13247;47.504;7.382;2023-04-29T08:22:32;14.77;;;5.05;;
21816;SDS011;13247;47.504;7.382;2023-04-29T08:25:17;5.30;;;4.78;;
21816;SDS011;13247;47.504;7.382;2023-04-29T08:28:03;7.97;;;4.88;;
21816;SDS011;13247;47.504;7.382;2023-04-29T08:30:48;5.20;;;4.50;;
21816;SDS011;13247;47.504;7.382;2023-04-29T08:33:33;5.75;;;4.38;;
21816;SDS011;13247;47.504;7.382;2023-04-29T08:36:18;7.10;;;3.92;;
21816;SDS011;13247;47.504;7.382;2023-04-29T08:39:03;4.10;;;3.60;;
21816;SDS011;13247;47.504;7.382;2023-04-29T08:41:47;4.35;;;3.95;;
21816;SDS011;13247;47.504;7.382;2023-04-29T08:44:34;4.85;;;3.65;;
21816;SDS011;13247;47.504;7.382;2023-04-29T08:47:19;6.65;;;3.83;;
21816;SDS011;13247;47.504;7.382;2023-04-29T08:50:05;4.07;;;3.53;;
21816;SDS011;13247;47.504;7.382;2023-04-29T08:52:51;10.95;;;3.70;;
21816;SDS011;13247;47.504;7.382;2023-04-29T08:55:41;7.30;;;3.20;;
21816;SDS011;13247;47.504;7.382;2023-04-29T08:58:30;4.70;;;3.53;;
21816;SDS011;13247;47.504;7.382;2023-04-29T09:01:19;8.07;;;3.83;;
21816;SDS011;13247;47.504;7.382;2023-04-29T09:04:14;4.57;;;3.60;;
21816;SDS011;13247;47.504;7.382;2023-04-29T09:07:17;5.57;;;2.83;;
21816;SDS011;13247;47.504;7.382;2023-04-29T09:10:03;3.33;;;3.00;;
21816;SDS011;13247;47.504;7.382;2023-04-29T09:12:48;4.43;;;3.45;;
21816;SDS011;13247;47.504;7.382;2023-04-29T09:15:37;5.25;;;3.00;;
21816;SDS011;13247;47.504;7.382;2023-04-29T09:21:34;6.25;;;3.33;;
21816;SDS011;13247;47.504;7.382;2023-04-29T09:24:19;5.25;;;3.50;;
21816;SDS011;13247;47.504;7.382;2023-04-29T09:27:12;6.03;;;4.32;;
21816;SDS011;13247;47.504;7.382;2023-04-29T09:30:10;4.72;;;3.92;;
21816;SDS011;13247;47.504;7.382;2023-04-29T09:33:02;5.18;;;3.42;;
21816;SDS011;13247;47.504;7.382;2023-04-29T09:38:34;3.83;;;3.13;;
21816;SDS011;13247;47.504;7.382;2023-04-29T09:41:19;7.68;;;5.47;;
21816;SDS011;13247;47.504;7.382;2023-04-29T09:44:05;5.47;;;3.90;;
21816;SDS011;13247;47.504;7.382;2023-04-29T09:49:40;4.90;;;3.38;;
21816;SDS011;13247;47.504;7.382;2023-04-29T09:52:28;5.40;;;3.08;;
21816;SDS011;13247;47.504;7.382;2023-04-29T09:55:26;4.80;;;3.78;;
21816;SDS011;13247;47.504;7.382;2023-04-29T09:58:26;4.05;;;3.28;;
21816;SDS011;13247;47.504;7.382;2023-04-29T10:01:13;5.43;;;3.60;;
21816;SDS011;13247;47.504;7.382;2023-04-29T10:04:01;5.18;;;4.10;;
21816;SDS011;13247;47.504;7.382;2023-04-29T10:06:48;7.28;;;4.13;;
21816;SDS011;13247;47.504;7.382;2023-04-29T10:09:34;4.18;;;3.17;;
21816;SDS011;13247;47.504;7.382;2023-04-29T10:12:22;4.93;;;3.30;;
21816;SDS011;13247;47.504;7.382;2023-04-29T10:15:19;4.75;;;3.50;;
21816;SDS011;13247;47.504;7.382;2023-04-29T10:18:28;3.35;;;2.85;;
21816;SDS011;13247;47.504;7.382;2023-04-29T10:24:16;3.15;;;2.85;;
21816;SDS011;13247;47.504;7.382;2023-04-29T10:27:06;3.25;;;2.80;;
21816;SDS011;13247;47.504;7.382;2023-04-29T10:29:55;5.15;;;3.15;;
21816;SDS011;13247;47.504;7.382;2023-04-29T10:32:41;3.50;;;3.20;;
21816;SDS011;13247;47.504;7.382;2023-04-29T10:35:28;3.35;;;2.70;;
21816;SDS011;13247;47.504;7.382;2023-04-29T10:38:15;4.57;;;2.67;;
21816;SDS011;13247;47.504;7.382;2023-04-29T10:41:25;4.75;;;2.90;;
21816;SDS011;13247;47.504;7.382;2023-04-29T10:44:14;4.85;;;2.40;;
21816;SDS011;13247;47.504;7.382;2023-04-29T10:47:18;2.65;;;2.30;;
21816;SDS011;13247;47.504;7.382;2023-04-29T10:50:03;5.22;;;2.90;;
21816;SDS011;13247;47.504;7.382;2023-04-29T10:52:52;3.72;;;2.83;;
21816;SDS011;13247;47.504;7.382;2023-04-29T10:55:38;3.88;;;2.40;;
21816;SDS011;13247;47.504;7.382;2023-04-29T10:58:34;4.20;;;2.00;;
21816;SDS011;13247;47.504;7.382;2023-04-29T11:01:39;3.83;;;2.00;;
21816;SDS011;13247;47.504;7.382;2023-04-29T11:04:25;2.20;;;2.00;;
21816;SDS011;13247;47.504;7.382;2023-04-29T11:07:10;7.10;;;2.05;;
21816;SDS011;13247;47.504;7.382;2023-04-29T11:10:11;2.13;;;1.77;;
21816;SDS011;13247;47.504;7.382;2023-04-29T11:16:07;2.90;;;2.00;;
21816;SDS011;13247;47.504;7.382;2023-04-29T11:19:03;4.95;;;2.10;;
21816;SDS011;13247;47.504;7.382;2023-04-29T11:21:52;8.55;;;1.60;;
21816;SDS011;13247;47.504;7.382;2023-04-29T11:27:46;3.83;;;1.63;;
21816;SDS011;13247;47.504;7.382;2023-04-29T11:30:32;4.05;;;2.00;;
21816;SDS011;13247;47.504;7.382;2023-04-29T11:33:24;2.85;;;1.90;;
21816;SDS011;13247;47.504;7.382;2023-04-29T11:36:10;5.50;;;1.35;;
21816;SDS011;13247;47.504;7.382;2023-04-29T11:38:55;1.30;;;1.20;;
21816;SDS011;13247;47.504;7.382;2023-04-29T11:41:42;1.35;;;1.25;;
21816;SDS011;13247;47.504;7.382;2023-04-29T11:44:27;3.00;;;1.52;;
21816;SDS011;13247;47.504;7.382;2023-04-29T11:47:11;4.97;;;1.52;;
21816;SDS011;13247;47.504;7.382;2023-04-29T11:50:06;1.70;;;1.52;;
21816;SDS011;13247;47.504;7.382;2023-04-29T11:52:55;4.07;;;1.35;;
21816;SDS011;13247;47.504;7.382;2023-04-29T11:55:41;4.10;;;1.63;;
21816;SDS011;13247;47.504;7.382;2023-04-29T11:58:27;2.75;;;1.65;;
21816;SDS011;13247;47.504;7.382;2023-04-29T12:01:12;2.40;;;1.40;;
21816;SDS011;13247;47.504;7.382;2023-04-29T12:03:57;1.65;;;1.55;;
21816;SDS011;13247;47.504;7.382;2023-04-29T12:06:42;4.85;;;1.88;;
21816;SDS011;13247;47.504;7.382;2023-04-29T12:09:27;3.83;;;1.92;;
21816;SDS011;13247;47.504;7.382;2023-04-29T12:12:12;2.78;;;2.55;;
21816;SDS011;13247;47.504;7.382;2023-04-29T12:14:58;5.15;;;2.20;;
21816;SDS011;13247;47.504;7.382;2023-04-29T12:17:43;3.78;;;2.60;;
21816;SDS011;13247;47.504;7.382;2023-04-29T12:20:29;3.75;;;2.42;;
21816;SDS011;13247;47.504;7.382;2023-04-29T12:23:15;3.22;;;2.40;;
21816;SDS011;13247;47.504;7.382;2023-04-29T12:26:01;7.10;;;2.67;;
21816;SDS011;13247;47.504;7.382;2023-04-29T12:28:47;2.65;;;2.33;;
21816;SDS011;13247;47.504;7.382;2023-04-29T12:31:36;3.40;;;2.25;;
21816;SDS011;13247;47.504;7.382;2023-04-29T12:34:27;4.47;;;2.42;;
21816;SDS011;13247;47.504;7.382;2023-04-29T12:37:13;2.40;;;1.90;;
21816;SDS011;13247;47.504;7.382;2023-04-29T12:39:59;3.50;;;1.55;;
21816;SDS011;13247;47.504;7.382;2023-04-29T12:42:43;4.85;;;1.70;;
21816;SDS011;13247;47.504;7.382;2023-04-29T12:45:30;3.15;;;2.15;;
21816;SDS011;13247;47.504;7.382;2023-04-29T12:48:17;1.92;;;1.75;;
21816;SDS011;13247;47.504;7.382;2023-04-29T12:51:01;2.70;;;1.50;;
21816;SDS011;13247;47.504;7.382;2023-04-29T12:53:46;1.65;;;1.40;;
21816;SDS011;13247;47.504;7.382;2023-04-29T12:56:31;2.75;;;1.35;;
21816;SDS011;13247;47.504;7.382;2023-04-29T12:59:16;1.30;;;1.20;;
21816;SDS011;13247;47.504;7.382;2023-04-29T13:02:00;3.78;;;1.33;;
21816;SDS011;13247;47.504;7.382;2023-04-29T13:04:45;2.60;;;1.20;;
21816;SDS011;13247;47.504;7.382;2023-04-29T13:07:30;4.13;;;2.58;;
21816;SDS011;13247;47.504;7.382;2023-04-29T13:10:15;5.57;;;2.22;;
21816;SDS011;13247;47.504;7.382;2023-04-29T13:13:00;2.60;;;1.40;;
21816;SDS011;13247;47.504;7.382;2023-04-29T13:15:45;2.67;;;1.17;;
21816;SDS011;13247;47.504;7.382;2023-04-29T13:18:30;4.00;;;1.60;;
21816;SDS011;13247;47.504;7.382;2023-04-29T13:21:15;3.63;;;2.22;;
21816;SDS011;13247;47.504;7.382;2023-04-29T13:23:59;4.10;;;2.42;;
21816;SDS011;13247;47.504;7.382;2023-04-29T13:26:44;3.58;;;2.30;;
21816;SDS011;13247;47.504;7.382;2023-04-29T13:29:30;3.33;;;2.47;;
21816;SDS011;13247;47.504;7.382;2023-04-29T13:32:15;3.67;;;2.83;;
21816;SDS011;13247;47.504;7.382;2023-04-29T13:34:59;7.47;;;3.03;;
21816;SDS011;13247;47.504;7.382;2023-04-29T13:37:44;2.75;;;2.28;;
21816;SDS011;13247;47.504;7.382;2023-04-29T13:40:30;5.43;;;3.30;;
21816;SDS011;13247;47.504;7.382;2023-04-29T13:43:15;7.70;;;3.00;;
21816;SDS011;13247;47.504;7.382;2023-04-29T13:45:59;6.93;;;2.88;;
21816;SDS011;13247;47.504;7.382;2023-04-29T13:48:45;3.28;;;2.53;;
21816;SDS011;13247;47.504;7.382;2023-04-29T13:51:29;2.72;;;2.08;;
21816;SDS011;13247;47.504;7.382;2023-04-29T13:54:14;2.28;;;2.08;;
21816;SDS011;13247;47.504;7.382;2023-04-29T13:57:00;3.25;;;2.47;;
21816;SDS011;13247;47.504;7.382;2023-04-29T13:59:48;2.67;;;2.13;;
21816;SDS011;13247;47.504;7.382;2023-04-29T14:02:35;6.13;;;3.25;;
21816;SDS011;13247;47.504;7.382;2023-04-29T14:05:20;4.85;;;3.25;;
21816;SDS011;13247;47.504;7.382;2023-04-29T14:08:05;5.35;;;3.20;;
21816;SDS011;13247;47.504;7.382;2023-04-29T14:10:49;3.72;;;3.08;;
21816;SDS011;13247;47.504;7.382;2023-04-29T14:13:34;3.90;;;2.63;;
21816;SDS011;13247;47.504;7.382;2023-04-29T14:16:19;5.70;;;3.50;;
21816;SDS011;13247;47.504;7.382;2023-04-29T14:19:04;5.53;;;3.05;;
21816;SDS011;13247;47.504;7.382;2023-04-29T14:21:49;2.90;;;2.60;;
21816;SDS011;13247;47.504;7.382;2023-04-29T14:24:34;4.80;;;2.78;;
21816;SDS011;13247;47.504;7.382;2023-04-29T14:27:19;5.35;;;2.97;;
21816;SDS011;13247;47.504;7.382;2023-04-29T14:30:04;4.07;;;2.72;;
21816;SDS011;13247;47.504;7.382;2023-04-29T14:32:49;6.25;;;3.40;;
21816;SDS011;13247;47.504;7.382;2023-04-29T14:35:34;3.08;;;2.78;;
21816;SDS011;13247;47.504;7.382;2023-04-29T14:38:18;4.88;;;3.22;;
21816;SDS011;13247;47.504;7.382;2023-04-29T14:41:03;2.92;;;2.72;;
21816;SDS011;13247;47.504;7.382;2023-04-29T14:43:48;3.85;;;2.40;;
21816;SDS011;13247;47.504;7.382;2023-04-29T14:46:32;3.97;;;2.72;;
21816;SDS011;13247;47.504;7.382;2023-04-29T14:49:17;4.07;;;3.13;;
21816;SDS011;13247;47.504;7.382;2023-04-29T14:52:02;4.80;;;3.05;;
21816;SDS011;13247;47.504;7.382;2023-04-29T14:54:47;3.47;;;3.10;;
21816;SDS011;13247;47.504;7.382;2023-04-29T14:57:32;6.32;;;3.13;;
21816;SDS011;13247;47.504;7.382;2023-04-29T15:00:16;4.55;;;3.60;;
21816;SDS011;13247;47.504;7.382;2023-04-29T15:03:01;5.85;;;3.65;;
21816;SDS011;13247;47.504;7.382;2023-04-29T15:05:47;4.45;;;3.60;;
21816;SDS011;13247;47.504;7.382;2023-04-29T15:08:33;6.05;;;3.28;;
21816;SDS011;13247;47.504;7.382;2023-04-29T15:11:18;4.20;;;3.35;;
21816;SDS011;13247;47.504;7.382;2023-04-29T15:14:04;3.55;;;2.97;;
21816;SDS011;13247;47.504;7.382;2023-04-29T15:16:49;8.90;;;3.10;;
21816;SDS011;13247;47.504;7.382;2023-04-29T15:19:33;5.50;;;3.15;;
21816;SDS011;13247;47.504;7.382;2023-04-29T15:22:18;5.60;;;3.65;;
21816;SDS011;13247;47.504;7.382;2023-04-29T15:25:03;3.90;;;2.90;;
21816;SDS011;13247;47.504;7.382;2023-04-29T15:27:48;7.53;;;3.58;;
21816;SDS011;13247;47.504;7.382;2023-04-29T15:30:33;6.45;;;3.80;;
21816;SDS011;13247;47.504;7.382;2023-04-29T15:33:18;4.88;;;3.63;;
21816;SDS011;13247;47.504;7.382;2023-04-29T15:36:02;5.55;;;3.25;;
21816;SDS011;13247;47.504;7.382;2023-04-29T15:38:48;4.30;;;3.28;;
21816;SDS011;13247;47.504;7.382;2023-04-29T15:41:33;4.13;;;3.13;;
21816;SDS011;13247;47.504;7.382;2023-04-29T15:44:18;7.55;;;3.85;;
21816;SDS011;13247;47.504;7.382;2023-04-29T15:47:03;4.90;;;3.45;;
21816;SDS011;13247;47.504;7.382;2023-04-29T15:49:48;4.90;;;3.70;;
21816;SDS011;13247;47.504;7.382;2023-04-29T15:52:35;5.10;;;3.40;;
21816;SDS011;13247;47.504;7.382;2023-04-29T15:55:20;4.20;;;3.15;;
21816;SDS011;13247;47.504;7.382;2023-04-29T15:58:05;5.38;;;3.08;;
21816;SDS011;13247;47.504;7.382;2023-04-29T16:00:50;6.60;;;3.13;;
21816;SDS011;13247;47.504;7.382;2023-04-29T16:03:34;3.38;;;3.08;;
21816;SDS011;13247;47.504;7.382;2023-04-29T16:06:19;4.45;;;2.53;;
21816;SDS011;13247;47.504;7.382;2023-04-29T16:09:03;4.50;;;2.85;;
21816;SDS011;13247;47.504;7.382;2023-04-29T16:11:48;4.10;;;2.90;;
21816;SDS011;13247;47.504;7.382;2023-04-29T16:14:36;3.70;;;2.85;;
21816;SDS011;13247;47.504;7.382;2023-04-29T16:17:21;5.03;;;3.25;;
21816;SDS011;13247;47.504;7.382;2023-04-29T16:20:05;4.70;;;3.00;;
21816;SDS011;13247;47.504;7.382;2023-04-29T16:22:51;3.42;;;2.78;;
21816;SDS011;13247;47.504;7.382;2023-04-29T16:25:35;4.05;;;3.00;;
21816;SDS011;13247;47.504;7.382;2023-04-29T16:28:23;3.80;;;3.13;;
21816;SDS011;13247;47.504;7.382;2023-04-29T16:31:08;5.32;;;3.17;;
21816;SDS011;13247;47.504;7.382;2023-04-29T16:33:55;4.43;;;3.67;;
21816;SDS011;13247;47.504;7.382;2023-04-29T16:36:40;8.30;;;3.55;;
21816;SDS011;13247;47.504;7.382;2023-04-29T16:39:25;5.15;;;3.72;;
21816;SDS011;13247;47.504;7.382;2023-04-29T16:42:09;5.45;;;3.95;;
21816;SDS011;13247;47.504;7.382;2023-04-29T16:44:54;7.35;;;3.88;;
21816;SDS011;13247;47.504;7.382;2023-04-29T16:47:41;5.43;;;4.10;;
21816;SDS011;13247;47.504;7.382;2023-04-29T16:50:27;5.47;;;3.85;;
21816;SDS011;13247;47.504;7.382;2023-04-29T16:53:12;6.07;;;4.18;;
21816;SDS011;13247;47.504;7.382;2023-04-29T16:55:57;9.10;;;3.47;;
21816;SDS011;13247;47.504;7.382;2023-04-29T16:58:41;7.85;;;4.80;;
21816;SDS011;13247;47.504;7.382;2023-04-29T17:01:26;9.18;;;5.95;;
21816;SDS011;13247;47.504;7.382;2023-04-29T17:04:11;6.60;;;4.22;;